Terminal Aerodrome Forecast
Issued by NWS Wilmington, OH

Current Version | Previous Version | Graphics & Text | Print | Product List | Glossary On
Versions: 1 2 3 4 5 6 7 8 9 10 11 12 13 14 15 16 17 18 19 20 21 22 23
000
FTUS41 KILN 250800 AAA
TAFCVG
TAF AMD
KCVG 250858Z 2509/2612 00000KT P6SM VCSH OVC050
     FM251100 10012KT P6SM VCSH OVC050
     FM251400 12012KT 5SM -SHRA BR OVC015
     FM251800 09012KT P6SM VCSH OVC015
     FM252000 06013KT 5SM -SHRA VCTS BKN015CB OVC025
     FM252300 04013KT 3SM BR VCSH OVC008
     FM260300 04014G24KT P6SM OVC012=

USA.gov is the U.S. government's official web portal to all federal, state and local government web resources and services.